createdAt,value
2023-03-02T00:01:33.764Z,26.10
2023-03-02T00:04:04.238Z,29.10
2023-03-02T00:06:34.501Z,31.60
2023-03-02T00:09:02.338Z,30.20
2023-03-02T00:11:31.752Z,33.90
2023-03-02T00:13:58.711Z,35.10
2023-03-02T00:16:26.022Z,36.10
2023-03-02T00:18:52.934Z,33.10
2023-03-02T00:21:19.891Z,36.90
2023-03-02T00:23:46.734Z,33.10
2023-03-02T00:26:13.610Z,35.80
2023-03-02T00:28:40.463Z,34.00
2023-03-02T00:31:07.293Z,34.60
2023-03-02T00:33:34.901Z,37.60
2023-03-02T00:36:02.637Z,36.90
2023-03-02T00:38:29.664Z,46.90
2023-03-02T00:40:56.814Z,42.40
2023-03-02T00:43:27.493Z,42.60
2023-03-02T00:45:55.410Z,40.10
2023-03-02T00:48:22.777Z,41.00
2023-03-02T00:50:49.633Z,43.00
2023-03-02T00:53:18.103Z,45.60
2023-03-02T00:55:53.663Z,40.80
2023-03-02T00:58:21.609Z,38.10
2023-03-02T01:00:48.841Z,45.10
2023-03-02T01:03:16.101Z,42.90
2023-03-02T01:05:43.083Z,42.90
2023-03-02T01:08:09.937Z,41.70
2023-03-02T01:10:37.649Z,42.70
2023-03-02T01:13:06.134Z,43.20
2023-03-02T01:15:33.750Z,38.50
2023-03-02T01:18:01.422Z,39.20
2023-03-02T01:20:28.568Z,38.70
2023-03-02T01:22:55.714Z,40.60
2023-03-02T01:25:22.570Z,43.60
2023-03-02T01:27:49.442Z,39.40
2023-03-02T01:30:16.433Z,40.90
2023-03-02T01:32:43.551Z,43.80
2023-03-02T01:35:10.602Z,41.80
2023-03-02T01:37:37.444Z,42.40
2023-03-02T01:40:06.881Z,41.30
2023-03-02T01:42:46.519Z,41.40
2023-03-02T01:45:41.733Z,40.40
2023-03-02T01:48:10.615Z,44.30
2023-03-02T01:50:37.598Z,46.10
2023-03-02T01:53:04.811Z,47.40
2023-03-02T01:55:32.846Z,48.50
2023-03-02T01:58:00.803Z,41.10
2023-03-02T02:00:30.728Z,39.80
2023-03-02T02:03:09.033Z,42.50
2023-03-02T02:05:41.613Z,47.80
2023-03-02T02:08:11.436Z,43.40
2023-03-02T02:10:41.033Z,44.10
2023-03-02T02:13:11.867Z,45.20
2023-03-02T02:15:39.434Z,44.70
2023-03-02T02:18:07.404Z,44.00
2023-03-02T02:20:40.163Z,41.90
2023-03-02T02:23:33.132Z,43.20
2023-03-02T02:26:22.585Z,41.30
2023-03-02T02:28:52.255Z,43.20
2023-03-02T02:31:26.772Z,40.80
2023-03-02T02:33:58.869Z,43.90
2023-03-02T02:36:33.765Z,43.60
2023-03-02T02:39:04.173Z,41.20
2023-03-02T02:41:37.879Z,42.90
2023-03-02T02:44:05.113Z,37.30
2023-03-02T02:46:35.514Z,40.30
2023-03-02T02:49:03.838Z,37.90
2023-03-02T02:51:30.758Z,41.00
2023-03-02T02:54:00.232Z,44.70
2023-03-02T02:56:32.151Z,45.80
2023-03-02T02:59:16.820Z,39.90
2023-03-02T03:01:44.791Z,38.80
2023-03-02T03:04:16.529Z,37.00
2023-03-02T03:06:54.009Z,38.40
2023-03-02T03:09:21.609Z,38.10
2023-03-02T03:11:53.760Z,41.00
2023-03-02T03:14:25.331Z,39.70
2023-03-02T03:16:52.804Z,39.80
2023-03-02T03:19:21.669Z,42.80
2023-03-02T03:21:51.066Z,43.20
2023-03-02T03:24:18.396Z,39.70
2023-03-02T03:26:45.762Z,42.10
2023-03-02T03:29:14.080Z,40.10
2023-03-02T03:31:41.088Z,40.90
2023-03-02T03:34:08.862Z,40.60
2023-03-02T03:36:36.641Z,39.50
2023-03-02T03:39:05.898Z,40.50
2023-03-02T03:41:33.232Z,40.90
2023-03-02T03:44:00.056Z,41.30
2023-03-02T03:46:27.028Z,42.00
2023-03-02T03:48:53.940Z,40.70
2023-03-02T03:51:20.926Z,35.80
2023-03-02T03:53:59.796Z,41.00
2023-03-02T03:56:31.995Z,37.00
2023-03-02T03:59:06.717Z,40.20
2023-03-02T04:01:38.747Z,39.80
2023-03-02T04:04:10.958Z,39.50
2023-03-02T04:06:38.369Z,39.90
2023-03-02T04:09:05.851Z,43.90
2023-03-02T04:11:36.682Z,43.10
2023-03-02T04:14:04.042Z,41.90
2023-03-02T04:16:31.372Z,40.20
2023-03-02T04:18:58.653Z,43.60
2023-03-02T04:21:25.983Z,42.00
2023-03-02T04:23:53.001Z,41.70
2023-03-02T04:26:19.877Z,43.00
2023-03-02T04:28:51.080Z,46.80
2023-03-02T04:31:18.156Z,41.20
2023-03-02T04:33:45.203Z,46.30
2023-03-02T04:36:12.186Z,45.40
2023-03-02T04:38:41.501Z,40.00
2023-03-02T04:41:08.201Z,42.60
2023-03-02T04:43:35.144Z,41.00
2023-03-02T04:46:01.935Z,43.70
2023-03-02T04:48:29.120Z,44.70
2023-03-02T04:50:56.120Z,44.80
2023-03-02T04:53:23.113Z,41.00
2023-03-02T04:55:49.908Z,40.60
2023-03-02T04:58:16.655Z,34.80
2023-03-02T05:00:43.475Z,42.50
2023-03-02T05:03:10.398Z,41.90
2023-03-02T05:05:37.340Z,39.00
2023-03-02T05:08:04.476Z,40.40
2023-03-02T05:10:31.360Z,41.70
2023-03-02T05:12:58.529Z,38.50
2023-03-02T05:15:28.395Z,37.50
2023-03-02T05:17:55.633Z,42.00
2023-03-02T05:20:27.736Z,40.30
2023-03-02T05:22:56.237Z,45.20
2023-03-02T05:25:23.100Z,37.90
2023-03-02T05:27:53.274Z,38.90
2023-03-02T05:30:20.864Z,37.70
2023-03-02T05:32:47.824Z,41.60
2023-03-02T05:35:15.063Z,37.80
2023-03-02T05:37:44.802Z,41.00
2023-03-02T05:40:17.578Z,40.00
2023-03-02T05:42:44.949Z,43.20
2023-03-02T05:45:25.094Z,40.10
2023-03-02T05:47:52.227Z,41.00
2023-03-02T05:50:22.458Z,40.60
2023-03-02T05:52:52.077Z,37.30
2023-03-02T05:55:19.702Z,42.60
2023-03-02T05:57:49.435Z,44.60
2023-03-02T06:00:17.973Z,41.00
2023-03-02T06:02:44.793Z,39.30
2023-03-02T06:05:13.972Z,45.30
2023-03-02T06:07:43.780Z,39.30
2023-03-02T06:10:12.395Z,42.30
2023-03-02T06:12:39.421Z,43.10
2023-03-02T06:15:07.430Z,40.40
2023-03-02T06:17:34.400Z,38.60
2023-03-02T06:20:02.035Z,37.70
2023-03-02T06:22:28.959Z,39.80
2023-03-02T06:24:55.899Z,40.90
2023-03-02T06:27:22.643Z,38.30
2023-03-02T06:29:51.954Z,40.50
2023-03-02T06:32:18.968Z,42.40
2023-03-02T06:34:45.951Z,40.30
2023-03-02T06:37:12.804Z,40.10
2023-03-02T06:39:42.057Z,43.40
2023-03-02T06:42:08.826Z,41.50
2023-03-02T06:44:35.535Z,40.40
2023-03-02T06:47:02.330Z,41.00
2023-03-02T06:49:29.282Z,44.90
2023-03-02T06:51:56.009Z,40.80
2023-03-02T06:54:24.138Z,39.10
2023-03-02T06:56:50.974Z,38.90
2023-03-02T06:59:17.836Z,44.20
2023-03-02T07:01:44.855Z,39.80
2023-03-02T07:04:11.640Z,36.40
2023-03-02T07:06:38.648Z,42.60
2023-03-02T07:09:05.370Z,43.80
2023-03-02T07:11:32.491Z,38.40
2023-03-02T07:14:03.275Z,38.10
2023-03-02T07:16:31.327Z,38.90
2023-03-02T07:19:01.171Z,38.80
2023-03-02T07:21:28.159Z,41.00
2023-03-02T07:23:54.893Z,44.30
2023-03-02T07:26:21.727Z,38.10
2023-03-02T07:28:48.557Z,42.40
2023-03-02T07:31:15.597Z,39.80
2023-03-02T07:33:42.564Z,40.90
2023-03-02T07:36:09.809Z,40.40
2023-03-02T07:38:38.137Z,39.30
2023-03-02T07:41:09.545Z,39.10
2023-03-02T07:43:37.087Z,43.60
2023-03-02T07:46:05.674Z,44.70
2023-03-02T07:48:33.414Z,40.40
2023-03-02T07:51:01.620Z,41.80
2023-03-02T07:53:29.001Z,40.40
2023-03-02T07:55:55.843Z,36.80
2023-03-02T07:58:23.095Z,37.00
2023-03-02T08:00:50.888Z,39.90
2023-03-02T08:03:17.781Z,33.60
2023-03-02T08:05:47.268Z,38.80
2023-03-02T08:08:14.168Z,37.10
2023-03-02T08:10:41.118Z,36.80
2023-03-02T08:13:07.984Z,39.50
2023-03-02T08:15:34.831Z,35.90
2023-03-02T08:18:01.766Z,34.90
2023-03-02T08:20:28.827Z,41.80
2023-03-02T08:22:55.781Z,40.30
2023-03-02T08:25:22.821Z,38.00
2023-03-02T08:27:52.137Z,36.90
2023-03-02T08:30:19.687Z,41.60
2023-03-02T08:32:46.587Z,37.40
2023-03-02T08:35:13.800Z,34.50
2023-03-02T08:37:40.724Z,35.00
2023-03-02T08:40:08.581Z,36.80
2023-03-02T08:42:37.981Z,38.10
2023-03-02T08:45:05.375Z,39.20
2023-03-02T08:47:32.843Z,40.70
2023-03-02T08:49:59.695Z,35.50
2023-03-02T08:52:26.752Z,35.60
2023-03-02T08:54:54.034Z,30.10
2023-03-02T08:57:23.227Z,35.90
2023-03-02T08:59:52.985Z,33.20
2023-03-02T09:02:19.843Z,35.80
2023-03-02T09:04:46.783Z,34.70
2023-03-02T09:07:17.532Z,33.30
2023-03-02T09:09:44.509Z,35.50
2023-03-02T09:12:11.552Z,36.30
2023-03-02T09:14:38.479Z,37.10
2023-03-02T09:17:05.750Z,36.70
2023-03-02T09:19:37.751Z,34.40
2023-03-02T09:22:04.646Z,38.00
2023-03-02T09:24:31.491Z,30.50
2023-03-02T09:26:58.272Z,33.00
2023-03-02T09:29:25.015Z,35.10
2023-03-02T09:31:52.171Z,31.10
2023-03-02T09:34:19.401Z,35.20
2023-03-02T09:36:46.851Z,33.10
2023-03-02T09:39:13.782Z,38.60
2023-03-02T09:42:05.329Z,33.50
2023-03-02T09:44:44.343Z,35.00
2023-03-02T09:47:34.574Z,31.90
2023-03-02T09:50:11.688Z,36.40
2023-03-02T09:52:53.083Z,34.60
2023-03-02T09:55:23.923Z,32.30
2023-03-02T09:57:50.928Z,33.80
2023-03-02T10:00:35.065Z,32.70
2023-03-02T10:03:17.046Z,34.00
2023-03-02T10:05:48.996Z,31.70
2023-03-02T10:08:31.886Z,30.40
2023-03-02T10:11:27.988Z,32.10
2023-03-02T10:14:03.439Z,28.60
2023-03-02T10:16:40.037Z,31.70
2023-03-02T10:19:17.781Z,26.50
2023-03-02T10:21:47.548Z,31.10
2023-03-02T10:24:32.329Z,25.90
2023-03-02T10:27:15.906Z,28.80
2023-03-02T10:29:55.028Z,24.80
2023-03-02T10:32:25.569Z,26.00
2023-03-02T10:34:53.218Z,27.20
2023-03-02T10:37:26.563Z,25.20
2023-03-02T10:39:53.800Z,22.10
2023-03-02T10:42:25.585Z,25.70
2023-03-02T10:44:56.429Z,24.80
2023-03-02T10:47:29.145Z,26.50
2023-03-02T10:49:57.627Z,22.80
2023-03-02T10:52:27.454Z,26.30
2023-03-02T10:55:09.730Z,22.70
2023-03-02T10:57:41.303Z,22.40
2023-03-02T11:00:18.692Z,22.90
2023-03-02T11:02:53.065Z,21.00
2023-03-02T11:05:34.874Z,25.20
2023-03-02T11:08:19.442Z,21.80
2023-03-02T11:10:58.291Z,20.70
2023-03-02T11:13:33.620Z,21.70
2023-03-02T11:16:02.032Z,19.90
2023-03-02T11:18:43.142Z,21.10
2023-03-02T11:21:12.944Z,20.70
2023-03-02T11:23:49.541Z,20.50
2023-03-02T11:26:23.740Z,22.90
2023-03-02T11:28:56.716Z,21.60
2023-03-02T11:31:54.392Z,21.30
2023-03-02T11:34:46.929Z,19.90
2023-03-02T11:37:23.960Z,17.60
2023-03-02T11:40:00.236Z,16.60
2023-03-02T11:42:47.283Z,18.90
2023-03-02T11:45:14.068Z,18.60
2023-03-02T11:48:02.596Z,18.80
2023-03-02T11:50:32.129Z,18.10
2023-03-02T11:53:02.122Z,17.90
2023-03-02T11:55:34.283Z,18.60
2023-03-02T11:58:03.705Z,17.90
2023-03-02T12:00:40.261Z,18.40
2023-03-02T12:03:10.768Z,17.70
2023-03-02T12:05:40.156Z,19.90
2023-03-02T12:08:08.720Z,17.50
2023-03-02T12:10:44.614Z,16.60
2023-03-02T12:13:22.008Z,17.10
2023-03-02T12:15:50.965Z,17.10
2023-03-02T12:18:20.804Z,18.00
2023-03-02T12:21:07.787Z,16.30
2023-03-02T12:23:40.916Z,16.80
2023-03-02T12:26:19.897Z,17.70
2023-03-02T12:29:05.626Z,18.80
2023-03-02T12:31:53.033Z,17.00
2023-03-02T12:34:32.326Z,18.30
2023-03-02T12:37:04.158Z,18.80
2023-03-02T12:39:43.148Z,16.00
2023-03-02T12:42:39.063Z,17.00
2023-03-02T12:45:32.581Z,15.90
2023-03-02T12:48:03.994Z,17.30
2023-03-02T12:50:33.530Z,18.70
2023-03-02T12:53:06.381Z,16.30
2023-03-02T12:55:34.578Z,15.60
2023-03-02T12:58:03.937Z,15.50
2023-03-02T13:00:33.488Z,16.40
2023-03-02T13:03:02.395Z,15.30
2023-03-02T13:05:31.602Z,15.50
2023-03-02T13:08:06.687Z,16.50
2023-03-02T13:10:48.336Z,15.50
2023-03-02T13:13:27.017Z,19.40
2023-03-02T13:16:28.895Z,15.80
2023-03-02T13:19:00.375Z,14.90
2023-03-02T13:21:33.063Z,15.90
2023-03-02T13:24:01.054Z,16.80
2023-03-02T13:26:36.167Z,13.60
2023-03-02T13:29:32.333Z,14.40
2023-03-02T13:32:21.626Z,13.30
2023-03-02T13:34:59.781Z,12.90
2023-03-02T13:37:29.857Z,15.30
2023-03-02T13:39:58.384Z,13.30
2023-03-02T13:42:43.211Z,15.20
2023-03-02T13:45:16.358Z,15.10
2023-03-02T13:47:44.804Z,15.70
2023-03-02T13:50:21.957Z,15.30
2023-03-02T13:52:50.068Z,13.60
2023-03-02T13:55:18.337Z,13.60
2023-03-02T13:57:46.049Z,16.10
2023-03-02T14:00:35.270Z,15.60
2023-03-02T14:03:02.465Z,12.90
2023-03-02T14:05:35.630Z,14.00
2023-03-02T14:08:07.368Z,12.70
2023-03-02T14:10:34.298Z,14.00
2023-03-02T14:13:08.713Z,12.70
2023-03-02T14:15:41.796Z,15.20
2023-03-02T14:18:34.912Z,14.50
2023-03-02T14:21:02.060Z,14.50
2023-03-02T14:23:29.336Z,14.70
2023-03-02T14:25:58.994Z,13.50
2023-03-02T14:28:30.443Z,15.60
2023-03-02T14:30:58.499Z,14.00
2023-03-02T14:33:25.994Z,15.90
2023-03-02T14:35:56.317Z,14.40
2023-03-02T14:38:25.097Z,13.50
2023-03-02T14:40:52.178Z,15.50
2023-03-02T14:43:23.564Z,14.50
2023-03-02T14:45:53.005Z,13.20
2023-03-02T14:48:19.983Z,13.80
2023-03-02T14:50:49.055Z,15.20
2023-03-02T14:53:28.692Z,15.10
2023-03-02T14:55:55.535Z,14.20
2023-03-02T14:58:30.867Z,14.50
2023-03-02T15:00:57.729Z,15.30
2023-03-02T15:03:25.899Z,15.80
2023-03-02T15:06:00.973Z,14.80
2023-03-02T15:08:29.436Z,12.20
2023-03-02T15:10:56.231Z,12.90
2023-03-02T15:13:23.120Z,14.10
2023-03-02T15:15:50.322Z,15.60
2023-03-02T15:18:19.944Z,13.30
2023-03-02T15:20:46.987Z,14.00
2023-03-02T15:23:14.000Z,13.90
2023-03-02T15:25:41.354Z,12.60
2023-03-02T15:28:08.099Z,13.80
2023-03-02T15:30:34.942Z,12.10
2023-03-02T15:33:01.791Z,12.40
2023-03-02T15:35:29.636Z,13.00
2023-03-02T15:37:58.413Z,13.00
2023-03-02T15:40:25.869Z,15.30
2023-03-02T15:42:53.269Z,14.60
2023-03-02T15:45:20.243Z,17.30
2023-03-02T15:47:47.273Z,14.50
2023-03-02T15:50:14.274Z,14.70
2023-03-02T15:52:42.131Z,15.50
2023-03-02T15:55:09.654Z,14.20
2023-03-02T15:57:39.145Z,13.80
2023-03-02T16:00:06.837Z,13.20
2023-03-02T16:02:33.767Z,12.80
2023-03-02T16:05:00.741Z,12.00
2023-03-02T16:07:28.221Z,13.20
2023-03-02T16:09:55.443Z,12.80
2023-03-02T16:12:24.871Z,15.00
2023-03-02T16:14:51.687Z,15.10
2023-03-02T16:17:19.202Z,14.90
2023-03-02T16:19:46.420Z,14.80
2023-03-02T16:22:13.243Z,13.30
2023-03-02T16:24:41.798Z,14.60
2023-03-02T16:27:09.026Z,15.10
2023-03-02T16:29:36.074Z,13.50
2023-03-02T16:32:03.132Z,13.90
2023-03-02T16:34:29.967Z,13.20
2023-03-02T16:36:56.938Z,13.90
2023-03-02T16:39:23.705Z,13.70
2023-03-02T16:41:51.533Z,17.10
2023-03-02T16:44:18.985Z,14.90
2023-03-02T16:46:46.056Z,14.30
2023-03-02T16:49:13.926Z,14.10
2023-03-02T16:51:41.578Z,16.30
2023-03-02T16:54:08.471Z,14.10
2023-03-02T16:56:37.840Z,13.90
2023-03-02T16:59:04.578Z,14.90
2023-03-02T17:01:31.460Z,18.20
2023-03-02T17:03:58.417Z,16.70
2023-03-02T17:06:25.727Z,14.90
2023-03-02T17:08:52.678Z,15.70
2023-03-02T17:11:20.376Z,16.00
2023-03-02T17:13:47.603Z,18.70
2023-03-02T17:16:16.762Z,16.30
2023-03-02T17:18:47.155Z,16.90
2023-03-02T17:21:16.371Z,17.00
2023-03-02T17:23:43.617Z,15.60
2023-03-02T17:26:10.858Z,18.40
2023-03-02T17:28:38.738Z,17.40
2023-03-02T17:31:05.826Z,19.30
2023-03-02T17:33:34.059Z,19.30
2023-03-02T17:36:07.394Z,19.10
2023-03-02T17:38:34.283Z,18.80
2023-03-02T17:41:05.557Z,22.00
2023-03-02T17:43:34.143Z,22.30
2023-03-02T17:46:23.576Z,19.70
2023-03-02T17:48:56.106Z,20.50
2023-03-02T17:51:23.952Z,19.70
2023-03-02T17:53:52.017Z,18.80
2023-03-02T17:56:22.202Z,19.30
2023-03-02T17:58:56.863Z,21.00
2023-03-02T18:03:50.891Z,20.50
2023-03-02T18:06:20.738Z,21.10
2023-03-02T18:08:49.459Z,19.10
2023-03-02T18:11:17.889Z,20.20
2023-03-02T18:13:44.997Z,21.70
2023-03-02T18:16:11.978Z,21.50
2023-03-02T18:18:39.102Z,24.20
2023-03-02T18:21:08.962Z,21.60
2023-03-02T18:23:35.889Z,24.80
2023-03-02T18:26:02.807Z,22.50
2023-03-02T18:28:29.645Z,23.70
2023-03-02T18:30:56.704Z,22.50
2023-03-02T18:33:23.760Z,23.60
2023-03-02T18:35:50.590Z,20.70
2023-03-02T18:38:17.452Z,22.20
2023-03-02T18:40:44.285Z,24.80
2023-03-02T18:43:13.501Z,22.40
2023-03-02T18:45:40.352Z,23.10
2023-03-02T18:48:07.200Z,21.40
2023-03-02T18:50:37.128Z,20.20
2023-03-02T18:53:04.061Z,21.20
2023-03-02T18:55:31.017Z,20.10
2023-03-02T18:58:00.209Z,22.70
2023-03-02T19:00:28.393Z,20.20
2023-03-02T19:02:56.102Z,20.70
2023-03-02T19:05:25.490Z,20.20
2023-03-02T19:07:52.626Z,24.10
2023-03-02T19:10:21.415Z,23.80
2023-03-02T19:12:48.564Z,20.90
2023-03-02T19:15:16.002Z,20.20
2023-03-02T19:17:43.912Z,24.50
2023-03-02T19:20:15.137Z,25.90
2023-03-02T19:22:41.988Z,23.70
2023-03-02T19:25:09.557Z,24.30
2023-03-02T19:27:36.399Z,25.60
2023-03-02T19:30:04.423Z,22.50
2023-03-02T19:32:31.315Z,22.20
2023-03-02T19:34:59.820Z,23.50
2023-03-02T19:37:26.762Z,23.10
2023-03-02T19:39:53.708Z,25.90
2023-03-02T19:42:20.657Z,23.90
2023-03-02T19:44:47.469Z,23.40
2023-03-02T19:47:14.349Z,24.50
2023-03-02T19:49:41.296Z,22.90
2023-03-02T19:52:09.583Z,21.70
2023-03-02T19:54:36.363Z,23.10
2023-03-02T19:57:07.977Z,23.10
2023-03-02T19:59:36.783Z,26.10
2023-03-02T20:02:03.610Z,23.30
2023-03-02T20:04:30.664Z,21.30
2023-03-02T20:06:57.408Z,21.50
2023-03-02T20:09:24.389Z,24.10
2023-03-02T20:11:51.312Z,25.20
2023-03-02T20:14:32.884Z,21.40
2023-03-02T20:17:01.075Z,23.40
2023-03-02T20:19:29.938Z,23.40
2023-03-02T20:21:56.707Z,22.60
2023-03-02T20:24:23.752Z,20.60
2023-03-02T20:26:50.873Z,20.60
2023-03-02T20:29:17.964Z,24.20
2023-03-02T20:31:45.127Z,26.00
2023-03-02T20:34:12.993Z,25.80
2023-03-02T20:36:39.937Z,23.30
2023-03-02T20:39:08.629Z,24.80
2023-03-02T20:41:36.510Z,23.30
2023-03-02T20:44:04.163Z,26.00
2023-03-02T20:46:35.502Z,26.60
2023-03-02T20:49:02.760Z,25.80
2023-03-02T20:51:29.934Z,25.80
2023-03-02T20:53:57.796Z,24.20
2023-03-02T20:56:24.870Z,24.30
2023-03-02T20:58:51.888Z,26.20
2023-03-02T21:01:20.147Z,24.70
2023-03-02T21:03:47.109Z,21.00
2023-03-02T21:06:15.407Z,23.30
2023-03-02T21:08:43.585Z,24.10
2023-03-02T21:11:13.501Z,26.00
2023-03-02T21:13:40.450Z,21.80
2023-03-02T21:16:08.791Z,26.90
2023-03-02T21:18:35.780Z,24.90
2023-03-02T21:21:02.947Z,24.10
2023-03-02T21:23:30.205Z,25.20
2023-03-02T21:25:57.208Z,24.30
2023-03-02T21:28:24.030Z,26.40
2023-03-02T21:30:50.886Z,29.10
2023-03-02T21:33:17.790Z,28.20
2023-03-02T21:35:46.573Z,29.00
2023-03-02T21:38:14.649Z,25.30
2023-03-02T21:40:48.770Z,27.90
2023-03-02T21:43:15.782Z,24.50
2023-03-02T21:45:42.865Z,24.40
2023-03-02T21:48:09.918Z,26.70
2023-03-02T21:50:38.145Z,26.30
2023-03-02T21:53:05.557Z,24.50
2023-03-02T21:55:33.830Z,28.20
2023-03-02T21:58:00.985Z,28.20
2023-03-02T22:00:33.300Z,29.00
2023-03-02T22:03:01.139Z,25.70
2023-03-02T22:05:28.597Z,26.50
2023-03-02T22:07:55.648Z,24.80
2023-03-02T22:10:34.892Z,28.00
2023-03-02T22:13:18.203Z,25.50
2023-03-02T22:15:46.491Z,24.00
2023-03-02T22:18:18.836Z,25.70
2023-03-02T22:20:48.892Z,26.50
2023-03-02T22:23:23.816Z,27.60
2023-03-02T22:25:53.143Z,27.50
2023-03-02T22:28:21.209Z,26.70
2023-03-02T22:30:49.155Z,26.50
2023-03-02T22:33:28.006Z,29.90
2023-03-02T22:36:02.015Z,29.70
2023-03-02T22:38:30.900Z,31.30
2023-03-02T22:40:57.828Z,30.10
2023-03-02T22:43:34.227Z,30.20
2023-03-02T22:46:06.666Z,27.20
2023-03-02T22:48:35.664Z,29.20
2023-03-02T22:51:14.471Z,28.40
2023-03-02T22:54:01.711Z,24.70
2023-03-02T22:56:31.388Z,30.60
2023-03-02T22:59:28.461Z,28.50
2023-03-02T23:02:00.610Z,26.00
2023-03-02T23:04:31.454Z,27.80
2023-03-02T23:07:03.165Z,28.60
2023-03-02T23:09:32.392Z,26.40
2023-03-02T23:12:02.525Z,24.40
2023-03-02T23:14:36.754Z,25.70
2023-03-02T23:17:17.024Z,27.90
2023-03-02T23:19:44.255Z,25.70
2023-03-02T23:22:11.305Z,29.60
2023-03-02T23:24:38.159Z,29.00
2023-03-02T23:27:05.128Z,29.50
2023-03-02T23:29:32.274Z,27.80
2023-03-02T23:31:59.374Z,26.90
2023-03-02T23:34:28.856Z,24.40
2023-03-02T23:36:58.321Z,26.90
2023-03-02T23:39:25.834Z,25.50
2023-03-02T23:41:52.767Z,26.50
2023-03-02T23:44:19.779Z,24.50
2023-03-02T23:46:47.249Z,27.80
2023-03-02T23:49:14.723Z,24.90
2023-03-02T23:51:41.642Z,25.80
2023-03-02T23:54:08.511Z,27.20
2023-03-02T23:56:37.800Z,26.90
2023-03-02T23:59:04.963Z,25.60
